Time;durP1;ratioP1;P1;durP2;ratioP2;P2;SDS_P1;SDS_P2;PMS_P1;PMS_P2;Temp;Humidity;BMP_temperature;BMP_pressure;BME280_temperature;BME280_humidity;BME280_pressure;Samples;Min_cycle;Max_cycle;Signal;HPM_P1;HPM_P2
2023/12/12 00:01:59;;;;;;;11.50;11.10;;;23.50;56.00;;;;;;4992868;28;20494;-71
2023/12/12 00:04:27;;;;;;;11.50;11.20;;;23.50;56.00;;;;;;4993169;28;20529;-72
2023/12/12 00:06:54;;;;;;;12.30;12.00;;;23.40;55.90;;;;;;4992855;28;20489;-72
2023/12/12 00:09:21;;;;;;;12.10;11.70;;;23.40;55.90;;;;;;4992988;28;20478;-71
2023/12/12 00:11:48;;;;;;;12.23;11.83;;;23.40;55.90;;;;;;4993199;28;20462;-72
2023/12/12 00:14:15;;;;;;;11.20;10.90;;;23.40;55.90;;;;;;4992850;28;20474;-72
2023/12/12 00:16:42;;;;;;;11.97;11.57;;;23.40;55.90;;;;;;4992779;28;20475;-72
2023/12/12 00:19:09;;;;;;;12.73;12.43;;;23.40;55.90;;;;;;4992744;28;20458;-72
2023/12/12 00:21:37;;;;;;;11.50;11.20;;;23.40;56.00;;;;;;4992833;28;20475;-72
2023/12/12 00:24:04;;;;;;;12.50;12.10;;;23.40;56.00;;;;;;4992675;28;20482;-72
2023/12/12 00:26:31;;;;;;;11.30;11.00;;;23.40;55.90;;;;;;4992780;28;20489;-71
2023/12/12 00:28:58;;;;;;;11.83;11.53;;;23.40;56.10;;;;;;4992487;28;20494;-72
2023/12/12 00:31:25;;;;;;;11.80;11.50;;;23.30;56.50;;;;;;4992565;28;20521;-72
2023/12/12 00:33:52;;;;;;;12.43;12.03;;;23.30;56.10;;;;;;4991691;28;20502;-72
2023/12/12 00:36:19;;;;;;;14.07;13.30;;;23.30;56.10;;;;;;4992682;28;20478;-72
2023/12/12 00:38:47;;;;;;;11.50;11.20;;;23.30;56.00;;;;;;4992616;28;20451;-72
2023/12/12 00:41:14;;;;;;;11.80;11.40;;;23.30;56.10;;;;;;4992461;28;20439;-72
2023/12/12 00:43:42;;;;;;;11.13;10.73;;;23.30;56.10;;;;;;4992412;28;20524;-72
2023/12/12 00:46:11;;;;;;;11.77;11.47;;;23.30;56.10;;;;;;4992203;28;20913;-72
2023/12/12 00:48:38;;;;;;;12.20;11.80;;;23.30;56.00;;;;;;4992408;28;20443;-72
2023/12/12 00:51:07;;;;;;;12.17;11.87;;;23.30;56.10;;;;;;4992659;28;20451;-71
2023/12/12 00:53:34;;;;;;;11.67;11.30;;;23.30;56.00;;;;;;4992306;28;20498;-71
2023/12/12 00:56:04;;;;;;;12.30;12.00;;;23.30;56.10;;;;;;4992337;28;20497;-71
2023/12/12 00:58:30;;;;;;;10.97;10.67;;;23.30;56.10;;;;;;4992333;28;20474;-72
2023/12/12 01:00:57;;;;;;;11.90;11.60;;;23.30;56.10;;;;;;4992130;28;20481;-72
2023/12/12 01:03:24;;;;;;;11.83;11.23;;;23.30;56.10;;;;;;4992202;28;20494;-71
2023/12/12 01:05:51;;;;;;;11.20;11.00;;;23.20;55.80;;;;;;4992140;28;20561;-71
2023/12/12 01:08:18;;;;;;;11.60;11.30;;;23.20;55.90;;;;;;4992101;28;20447;-71
2023/12/12 01:10:45;;;;;;;11.17;10.87;;;23.30;56.10;;;;;;4992213;28;20481;-72
2023/12/12 01:13:13;;;;;;;10.83;10.63;;;23.20;56.00;;;;;;4991941;28;20490;-72
2023/12/12 01:15:40;;;;;;;10.97;10.67;;;23.20;56.00;;;;;;4992003;28;20475;-71
2023/12/12 01:18:07;;;;;;;11.67;11.37;;;23.20;56.00;;;;;;4992097;28;20482;-71
2023/12/12 01:20:34;;;;;;;12.57;12.27;;;23.20;55.90;;;;;;4992202;28;20471;-71
2023/12/12 01:23:01;;;;;;;13.20;12.90;;;23.20;55.80;;;;;;4991864;28;20505;-71
2023/12/12 01:25:29;;;;;;;12.67;12.37;;;23.20;55.80;;;;;;4991985;28;20506;-71
2023/12/12 01:27:56;;;;;;;13.20;12.70;;;23.20;55.90;;;;;;4991869;28;20454;-71
2023/12/12 01:30:24;;;;;;;13.10;12.70;;;23.20;55.80;;;;;;4991951;28;20910;-70
2023/12/12 01:32:51;;;;;;;13.03;12.73;;;23.20;55.90;;;;;;4991921;28;21005;-71
2023/12/12 01:35:18;;;;;;;12.10;11.80;;;23.20;55.90;;;;;;4991801;28;20862;-71
2023/12/12 01:37:45;;;;;;;12.73;12.43;;;23.10;55.90;;;;;;4991940;28;20439;-71
2023/12/12 01:40:12;;;;;;;13.30;12.90;;;23.20;55.90;;;;;;4991912;28;20471;-71
2023/12/12 01:42:39;;;;;;;11.83;11.50;;;23.10;55.80;;;;;;4991920;28;20506;-71
2023/12/12 01:45:07;;;;;;;12.30;12.00;;;23.10;55.80;;;;;;4992797;28;20518;-71
2023/12/12 01:47:35;;;;;;;12.03;11.63;;;23.10;55.90;;;;;;4995744;28;20483;-71
2023/12/12 01:50:03;;;;;;;12.23;11.90;;;23.20;55.90;;;;;;4995468;28;20481;-71
2023/12/12 01:52:30;;;;;;;11.50;11.20;;;23.10;55.80;;;;;;4995645;28;20494;-71
2023/12/12 01:54:57;;;;;;;12.27;11.83;;;23.20;55.70;;;;;;4995511;28;20466;-71
2023/12/12 01:57:24;;;;;;;13.37;12.77;;;23.10;55.60;;;;;;4995462;28;20882;-71
2023/12/12 01:59:51;;;;;;;12.17;11.87;;;23.10;55.60;;;;;;4995520;28;20533;-71
2023/12/12 02:02:19;;;;;;;11.83;11.53;;;23.10;55.60;;;;;;4995053;28;20501;-72
2023/12/12 02:04:49;;;;;;;11.90;11.60;;;23.10;55.80;;;;;;4995306;28;20571;-70
2023/12/12 02:07:16;;;;;;;11.80;11.50;;;23.10;55.80;;;;;;4995177;28;20463;-70
2023/12/12 02:09:44;;;;;;;12.30;11.80;;;23.10;55.70;;;;;;4995250;28;20449;-70
2023/12/12 02:12:11;;;;;;;11.90;11.50;;;23.10;55.60;;;;;;4995015;28;20502;-71
2023/12/12 02:14:38;;;;;;;11.80;11.50;;;23.10;55.60;;;;;;4995077;28;20514;-71
2023/12/12 02:17:05;;;;;;;12.30;11.90;;;23.10;55.60;;;;;;4995005;28;20442;-71
2023/12/12 02:19:32;;;;;;;12.20;11.90;;;23.00;55.60;;;;;;4995077;28;20961;-71
2023/12/12 02:22:00;;;;;;;13.37;12.97;;;23.10;55.60;;;;;;4994661;28;20498;-71
2023/12/12 02:24:27;;;;;;;12.67;12.37;;;23.10;55.50;;;;;;4994938;28;20475;-71
2023/12/12 02:26:54;;;;;;;11.60;11.30;;;23.10;55.40;;;;;;4994901;28;20525;-71
2023/12/12 02:29:21;;;;;;;12.07;11.77;;;23.10;55.50;;;;;;4994907;28;20942;-71
2023/12/12 02:31:48;;;;;;;12.43;12.13;;;23.10;55.50;;;;;;4994826;28;20826;-71
2023/12/12 02:34:15;;;;;;;13.13;12.80;;;23.10;55.40;;;;;;4994878;28;20470;-71
2023/12/12 02:36:43;;;;;;;12.60;11.90;;;23.10;55.40;;;;;;4994753;28;20478;-70
2023/12/12 02:39:12;;;;;;;13.67;13.17;;;23.10;55.50;;;;;;4994607;28;20447;-71
2023/12/12 02:41:39;;;;;;;11.87;11.57;;;23.00;55.30;;;;;;4994594;28;20817;-71
2023/12/12 02:44:06;;;;;;;11.70;11.40;;;23.00;55.40;;;;;;4994508;28;20478;-71
2023/12/12 02:46:33;;;;;;;12.47;12.17;;;23.00;55.40;;;;;;4994625;28;20506;-71
2023/12/12 02:49:00;;;;;;;12.07;11.67;;;23.00;55.30;;;;;;4994554;28;21056;-70
2023/12/12 02:51:27;;;;;;;12.73;12.43;;;23.00;55.50;;;;;;4994471;28;20478;-71
2023/12/12 02:53:54;;;;;;;11.00;10.70;;;23.00;55.40;;;;;;4994497;28;20502;-70
2023/12/12 02:56:22;;;;;;;11.30;11.00;;;23.00;55.90;;;;;;4993604;28;20459;-70
2023/12/12 02:58:49;;;;;;;11.90;11.50;;;23.00;55.20;;;;;;4994268;28;20479;-70
2023/12/12 03:01:16;;;;;;;11.97;11.67;;;23.00;55.30;;;;;;4994246;28;20475;-71
2023/12/12 03:03:44;;;;;;;12.83;12.40;;;23.00;55.20;;;;;;4994194;28;20494;-70
2023/12/12 03:06:10;;;;;;;11.70;11.40;;;23.00;55.30;;;;;;4993939;28;20536;-70
2023/12/12 03:08:37;;;;;;;11.60;11.30;;;23.00;55.20;;;;;;4994131;28;20497;-70
2023/12/12 03:11:04;;;;;;;11.73;11.43;;;23.00;55.20;;;;;;4994038;28;20486;-71
2023/12/12 03:13:33;;;;;;;12.60;12.10;;;23.00;55.20;;;;;;4994265;28;20495;-71
2023/12/12 03:16:00;;;;;;;11.73;11.33;;;23.00;55.20;;;;;;4994181;28;20447;-71
2023/12/12 03:18:27;;;;;;;11.30;11.10;;;23.00;55.20;;;;;;4994007;28;20939;-71
2023/12/12 03:20:54;;;;;;;12.57;11.97;;;23.00;55.30;;;;;;4993954;28;20478;-70
2023/12/12 03:23:21;;;;;;;11.73;11.43;;;23.00;55.40;;;;;;4993781;28;20513;-70
2023/12/12 03:25:48;;;;;;;13.07;12.60;;;23.00;55.30;;;;;;4993793;28;20510;-71
2023/12/12 03:28:15;;;;;;;12.07;11.77;;;23.00;55.20;;;;;;4993644;28;20701;-71
2023/12/12 03:30:43;;;;;;;11.80;11.50;;;23.00;55.20;;;;;;4993768;28;20947;-70
2023/12/12 03:33:10;;;;;;;14.03;13.73;;;23.00;55.20;;;;;;4993628;28;20494;-71
2023/12/12 03:35:37;;;;;;;13.30;12.90;;;23.00;55.30;;;;;;4993774;28;20463;-71
2023/12/12 03:38:04;;;;;;;13.57;13.10;;;23.00;55.30;;;;;;4993534;28;20446;-71
2023/12/12 03:40:31;;;;;;;12.47;12.17;;;23.00;55.20;;;;;;4993714;28;20919;-71
2023/12/12 03:42:58;;;;;;;12.90;12.50;;;23.00;55.20;;;;;;4993519;28;20477;-71
2023/12/12 03:45:25;;;;;;;12.30;11.90;;;22.90;55.20;;;;;;4985489;28;21003;-70
2023/12/12 03:47:53;;;;;;;12.60;12.20;;;23.00;55.20;;;;;;4993485;28;20878;-71
2023/12/12 03:50:20;;;;;;;12.30;12.00;;;23.00;55.20;;;;;;4993444;28;20478;-71
2023/12/12 03:52:47;;;;;;;12.60;12.30;;;23.00;55.10;;;;;;4993263;28;20501;-70
2023/12/12 03:55:14;;;;;;;13.20;12.80;;;23.00;55.00;;;;;;4993139;28;20475;-70
2023/12/12 03:57:41;;;;;;;12.20;11.90;;;23.00;55.00;;;;;;4993100;28;20485;-70
2023/12/12 04:00:10;;;;;;;12.93;12.53;;;23.00;55.10;;;;;;4993113;28;20481;-71
2023/12/12 04:02:37;;;;;;;12.73;12.33;;;23.00;55.10;;;;;;4993080;28;20475;-71
2023/12/12 04:05:09;;;;;;;11.90;11.60;;;22.90;55.00;;;;;;4993112;28;20954;-71
2023/12/12 04:07:36;;;;;;;12.30;11.90;;;23.00;55.10;;;;;;4993053;28;20462;-70
2023/12/12 04:10:04;;;;;;;13.00;12.60;;;23.00;55.00;;;;;;4993027;28;20471;-71
2023/12/12 04:12:31;;;;;;;13.47;13.00;;;22.90;54.90;;;;;;4992924;28;20491;-71
2023/12/12 04:14:58;;;;;;;12.83;12.43;;;22.90;54.90;;;;;;4992900;28;20475;-70
2023/12/12 04:17:25;;;;;;;13.07;12.70;;;22.90;54.90;;;;;;4992910;28;20939;-71
2023/12/12 04:19:52;;;;;;;13.03;12.63;;;22.90;55.00;;;;;;4992887;28;20874;-70
2023/12/12 04:22:20;;;;;;;13.37;12.87;;;22.90;54.90;;;;;;4992655;28;20525;-70
2023/12/12 04:24:46;;;;;;;12.70;12.33;;;22.90;54.90;;;;;;4992771;28;20478;-71
2023/12/12 04:27:13;;;;;;;12.50;12.20;;;23.00;54.90;;;;;;4992443;28;20510;-70
2023/12/12 04:29:40;;;;;;;13.00;12.70;;;22.90;55.00;;;;;;4992928;28;20235;-71
2023/12/12 04:32:07;;;;;;;13.13;12.70;;;22.90;54.70;;;;;;4992386;28;20494;-70
2023/12/12 04:34:35;;;;;;;13.17;12.77;;;22.90;54.80;;;;;;4992648;28;20473;-71
2023/12/12 04:37:02;;;;;;;13.13;12.73;;;22.90;54.80;;;;;;4992419;28;20486;-71
2023/12/12 04:39:30;;;;;;;12.93;12.50;;;22.90;54.90;;;;;;4992505;28;20501;-70
2023/12/12 04:41:57;;;;;;;12.70;12.20;;;22.90;54.80;;;;;;4992072;28;20614;-70
2023/12/12 04:44:24;;;;;;;12.90;12.50;;;22.90;54.80;;;;;;4992136;28;20467;-70
2023/12/12 04:46:51;;;;;;;12.70;12.30;;;22.90;54.80;;;;;;4992336;28;20506;-70
2023/12/12 04:49:19;;;;;;;12.83;12.53;;;22.90;54.90;;;;;;4992410;28;20482;-71
2023/12/12 04:51:46;;;;;;;12.90;12.60;;;22.90;54.80;;;;;;4992346;28;20450;-70
2023/12/12 04:54:13;;;;;;;13.37;12.90;;;22.90;54.70;;;;;;4992482;28;20447;-70
2023/12/12 04:56:42;;;;;;;13.63;13.13;;;22.90;54.70;;;;;;4992069;28;21209;-71
2023/12/12 04:59:08;;;;;;;14.43;13.93;;;22.90;54.70;;;;;;4992142;28;20482;-70
2023/12/12 05:01:35;;;;;;;13.87;13.47;;;23.00;54.90;;;;;;4992063;28;20463;-70
2023/12/12 05:04:03;;;;;;;14.30;13.90;;;23.00;54.70;;;;;;4992088;28;20478;-70
2023/12/12 05:06:30;;;;;;;14.00;13.60;;;23.00;54.70;;;;;;4992267;28;20561;-70
2023/12/12 05:08:57;;;;;;;15.37;14.87;;;23.00;54.90;;;;;;4992332;28;20475;-70
2023/12/12 05:11:24;;;;;;;13.77;13.30;;;23.00;54.80;;;;;;4991832;28;20479;-70
2023/12/12 05:13:52;;;;;;;13.50;13.10;;;23.00;54.80;;;;;;4992037;28;20490;-71
2023/12/12 05:16:20;;;;;;;13.70;13.30;;;23.00;54.80;;;;;;4992386;28;20876;-70
2023/12/12 05:18:46;;;;;;;15.33;14.60;;;23.00;54.90;;;;;;4992206;28;20526;-70
2023/12/12 05:21:13;;;;;;;17.20;16.70;;;23.10;55.00;;;;;;4994864;28;20481;-71
2023/12/12 05:23:41;;;;;;;15.73;15.23;;;23.10;55.00;;;;;;4996211;28;20502;-71
2023/12/12 05:26:08;;;;;;;14.90;14.50;;;23.10;55.10;;;;;;4995852;28;20561;-71
2023/12/12 05:28:35;;;;;;;14.70;14.30;;;23.10;54.80;;;;;;4996163;28;20489;-71
2023/12/12 05:31:03;;;;;;;15.30;14.67;;;23.10;55.00;;;;;;4996032;28;20481;-71
2023/12/12 05:33:30;;;;;;;14.10;13.70;;;23.10;55.10;;;;;;4988065;28;20506;-71
2023/12/12 05:35:57;;;;;;;15.17;14.77;;;23.10;55.00;;;;;;4996104;28;20477;-71
2023/12/12 05:38:24;;;;;;;15.13;14.60;;;23.10;55.00;;;;;;4995798;28;20481;-71
2023/12/12 05:40:50;;;;;;;15.00;14.60;;;23.10;55.10;;;;;;4995553;28;20470;-71
2023/12/12 05:43:18;;;;;;;15.10;14.60;;;23.10;55.00;;;;;;4995378;28;20463;-70
2023/12/12 05:45:45;;;;;;;15.90;15.40;;;23.10;55.30;;;;;;4995919;28;21141;-72
2023/12/12 05:48:14;;;;;;;14.93;14.53;;;23.10;55.20;;;;;;4995601;28;20482;-71
2023/12/12 05:50:41;;;;;;;16.90;15.97;;;23.10;55.20;;;;;;4995938;28;20474;-71
2023/12/12 05:53:08;;;;;;;15.70;15.20;;;23.10;55.40;;;;;;4995405;28;20893;-70
2023/12/12 05:55:34;;;;;;;16.10;15.60;;;23.10;55.30;;;;;;4995370;28;20870;-71
2023/12/12 05:58:01;;;;;;;16.13;15.67;;;23.10;55.30;;;;;;4995377;28;20500;-71
2023/12/12 06:00:29;;;;;;;16.43;15.83;;;23.10;55.70;;;;;;4995360;28;20470;-71
2023/12/12 06:02:56;;;;;;;15.73;15.23;;;23.20;55.60;;;;;;4995245;28;20565;-71
2023/12/12 06:05:24;;;;;;;17.27;16.77;;;23.20;55.40;;;;;;4995696;28;20470;-72
2023/12/12 06:07:51;;;;;;;17.57;16.87;;;23.20;55.50;;;;;;4995169;28;20510;-71
2023/12/12 06:10:19;;;;;;;16.97;16.23;;;23.20;55.60;;;;;;4995160;28;20509;-71
2023/12/12 06:12:46;;;;;;;17.03;15.60;;;23.20;55.80;;;;;;4995129;28;20561;-71
2023/12/12 06:15:13;;;;;;;19.00;17.30;;;23.30;56.20;;;;;;4995075;28;20981;-68
2023/12/12 06:17:40;;;;;;;17.73;16.10;;;23.30;57.70;;;;;;5018765;23;20533;-73
2023/12/12 06:20:08;;;;;;;17.90;16.10;;;23.30;59.30;;;;;;4986219;28;20450;-73
2023/12/12 06:22:37;;;;;;;17.30;15.60;;;23.30;61.20;;;;;;4995304;28;20439;-72
2023/12/12 06:25:06;;;;;;;17.70;16.37;;;23.30;61.50;;;;;;4995212;28;20447;-72
2023/12/12 06:27:33;;;;;;;18.20;16.47;;;23.30;59.70;;;;;;4987387;28;20518;-73
2023/12/12 06:30:00;;;;;;;18.03;16.50;;;23.40;59.40;;;;;;4994970;28;20993;-72
2023/12/12 06:32:26;;;;;;;19.13;17.57;;;23.40;59.20;;;;;;4993696;28;20473;-73
2023/12/12 06:34:53;;;;;;;15.60;14.80;;;23.40;58.90;;;;;;4995039;28;20447;-72
2023/12/12 06:37:20;;;;;;;16.57;15.60;;;23.40;58.70;;;;;;4994868;28;20553;-73
2023/12/12 06:39:49;;;;;;;19.23;16.50;;;23.40;58.50;;;;;;4995020;28;20509;-72
2023/12/12 06:42:15;;;;;;;18.73;17.60;;;23.40;58.30;;;;;;4994703;28;20916;-72
2023/12/12 06:44:42;;;;;;;18.60;17.50;;;23.40;58.20;;;;;;4994921;28;20909;-72
2023/12/12 06:47:10;;;;;;;17.10;15.67;;;23.50;58.10;;;;;;4994470;28;21016;-72
2023/12/12 06:49:37;;;;;;;16.87;16.20;;;23.50;57.90;;;;;;4994760;28;20530;-73
2023/12/12 06:52:04;;;;;;;18.90;17.50;;;23.50;57.80;;;;;;4994674;28;20455;-72
2023/12/12 06:54:31;;;;;;;17.43;16.20;;;23.50;57.70;;;;;;4986474;28;20526;-72
2023/12/12 06:56:59;;;;;;;16.83;15.90;;;23.50;57.50;;;;;;4993976;28;20459;-72
2023/12/12 06:59:26;;;;;;;15.57;14.67;;;23.50;57.40;;;;;;4994298;28;20548;-72
2023/12/12 07:01:54;;;;;;;17.47;16.63;;;23.50;57.30;;;;;;4994544;28;20447;-72
2023/12/12 07:04:22;;;;;;;16.90;15.80;;;23.50;57.20;;;;;;4994291;28;20490;-73
2023/12/12 07:06:48;;;;;;;19.37;18.30;;;23.50;57.10;;;;;;4994069;28;20491;-72
2023/12/12 07:09:15;;;;;;;18.20;16.47;;;23.50;57.00;;;;;;4994195;28;20481;-72
2023/12/12 07:11:44;;;;;;;17.30;16.10;;;23.50;56.90;;;;;;4994123;28;20475;-72
2023/12/12 07:14:12;;;;;;;15.63;15.03;;;23.60;56.90;;;;;;4994014;28;20964;-72
2023/12/12 07:16:39;;;;;;;16.43;15.37;;;23.60;56.80;;;;;;4993961;28;20494;-72
2023/12/12 07:19:07;;;;;;;17.43;16.50;;;23.60;56.70;;;;;;4994369;28;20858;-72
2023/12/12 07:21:39;;;;;;;16.37;15.37;;;23.60;56.70;;;;;;4986385;28;20447;-72
2023/12/12 07:24:06;;;;;;;17.17;16.40;;;23.60;56.60;;;;;;4993956;28;20447;-72
2023/12/12 07:26:33;;;;;;;17.60;16.70;;;23.60;56.50;;;;;;4985593;28;20600;-72
2023/12/12 07:29:00;;;;;;;16.80;15.57;;;23.60;56.50;;;;;;4994135;28;20471;-72
2023/12/12 07:31:28;;;;;;;17.70;16.77;;;23.60;56.40;;;;;;4993722;28;20517;-72
2023/12/12 07:33:55;;;;;;;16.33;15.83;;;23.60;56.30;;;;;;4993916;28;20443;-72
2023/12/12 07:36:22;;;;;;;17.70;16.47;;;23.60;56.20;;;;;;4993566;28;20463;-73
2023/12/12 07:38:49;;;;;;;18.00;16.83;;;23.70;56.20;;;;;;4993835;28;20443;-72
2023/12/12 07:41:16;;;;;;;16.17;15.57;;;23.70;56.20;;;;;;4993350;28;20455;-73
2023/12/12 07:43:43;;;;;;;15.53;15.03;;;23.70;56.10;;;;;;4993233;28;20470;-72
2023/12/12 07:46:10;;;;;;;16.27;15.47;;;23.70;56.10;;;;;;4993339;28;20505;-72
2023/12/12 07:48:38;;;;;;;16.10;15.50;;;23.70;56.00;;;;;;4993557;28;20568;-72
2023/12/12 07:51:05;;;;;;;16.37;15.57;;;23.70;55.90;;;;;;4993424;28;20475;-73
2023/12/12 07:53:32;;;;;;;19.23;17.70;;;23.70;55.90;;;;;;4993186;28;20435;-73
2023/12/12 07:55:59;;;;;;;17.90;16.83;;;23.70;55.90;;;;;;4993098;28;20935;-72
2023/12/12 07:58:26;;;;;;;17.00;16.20;;;23.70;55.80;;;;;;4993085;28;20600;-72
2023/12/12 08:00:52;;;;;;;17.33;16.33;;;23.80;55.90;;;;;;4993243;28;20475;-72
2023/12/12 08:03:21;;;;;;;18.00;17.23;;;23.70;55.70;;;;;;4993186;28;20475;-72
2023/12/12 08:05:49;;;;;;;16.80;16.00;;;23.70;55.70;;;;;;4993159;28;20451;-72
2023/12/12 08:08:16;;;;;;;15.90;15.40;;;23.70;55.60;;;;;;4993020;28;20514;-73
2023/12/12 08:10:43;;;;;;;16.87;16.27;;;23.70;55.60;;;;;;4993086;28;20479;-71
2023/12/12 08:13:10;;;;;;;16.40;15.80;;;23.80;55.60;;;;;;4993094;28;20447;-72
2023/12/12 08:15:38;;;;;;;15.87;15.37;;;23.80;55.50;;;;;;4993238;28;20442;-72
2023/12/12 08:18:05;;;;;;;17.60;16.73;;;23.80;55.50;;;;;;4992883;28;20497;-73
2023/12/12 08:20:32;;;;;;;17.33;16.83;;;23.80;55.40;;;;;;4992697;28;20954;-72
2023/12/12 08:23:00;;;;;;;17.60;16.90;;;23.80;55.40;;;;;;4992779;28;20496;-73
2023/12/12 08:25:27;;;;;;;19.00;18.30;;;23.80;55.40;;;;;;4992870;28;20481;-73
2023/12/12 08:27:54;;;;;;;17.63;17.07;;;23.80;55.30;;;;;;4992744;28;20486;-72
2023/12/12 08:30:21;;;;;;;17.90;17.20;;;23.80;55.30;;;;;;4992644;28;20481;-72
2023/12/12 08:32:48;;;;;;;17.53;16.93;;;23.80;55.30;;;;;;4992800;28;20482;-72
2023/12/12 08:35:15;;;;;;;17.27;16.57;;;23.80;55.20;;;;;;4992608;28;20538;-73
2023/12/12 08:37:42;;;;;;;18.93;18.07;;;23.80;55.30;;;;;;4992549;28;20483;-72
2023/12/12 08:40:11;;;;;;;17.30;16.70;;;23.80;55.10;;;;;;4992740;28;20475;-73
2023/12/12 08:42:39;;;;;;;18.50;17.90;;;23.80;55.10;;;;;;4984667;28;20470;-72
2023/12/12 08:45:08;;;;;;;18.50;17.50;;;23.90;55.20;;;;;;4992606;28;20927;-72
2023/12/12 08:47:36;;;;;;;17.10;16.60;;;23.80;55.00;;;;;;4992115;28;20486;-71
2023/12/12 08:50:03;;;;;;;16.90;16.40;;;23.90;55.10;;;;;;4992407;28;20475;-72
2023/12/12 08:52:31;;;;;;;17.50;17.00;;;23.90;55.10;;;;;;4992397;28;20443;-72
2023/12/12 08:54:58;;;;;;;16.63;15.93;;;23.90;55.00;;;;;;4991660;28;21008;-71
2023/12/12 08:57:26;;;;;;;16.43;15.70;;;23.90;55.10;;;;;;4991977;28;20486;-72
2023/12/12 08:59:53;;;;;;;16.73;16.10;;;23.90;55.00;;;;;;4992271;28;20516;-73
2023/12/12 09:02:21;;;;;;;15.93;15.43;;;23.90;55.00;;;;;;4992266;28;20450;-72
2023/12/12 09:04:48;;;;;;;16.40;15.90;;;23.90;54.90;;;;;;4992316;28;20814;-72
2023/12/12 09:07:14;;;;;;;16.43;15.77;;;23.90;54.90;;;;;;4991903;28;20525;-72
2023/12/12 09:09:41;;;;;;;16.30;15.67;;;23.90;54.80;;;;;;4992247;28;20473;-73
2023/12/12 09:12:08;;;;;;;14.63;14.13;;;23.90;54.80;;;;;;4992263;28;20481;-72
2023/12/12 09:14:36;;;;;;;15.53;14.93;;;23.90;54.80;;;;;;4992243;28;20474;-72
2023/12/12 09:17:04;;;;;;;16.83;16.20;;;24.00;54.90;;;;;;4991912;28;20521;-71
2023/12/12 09:19:30;;;;;;;15.67;14.97;;;23.90;54.70;;;;;;4992010;28;20962;-71
2023/12/12 09:21:57;;;;;;;15.70;15.20;;;23.90;54.70;;;;;;4991987;28;20451;-72
2023/12/12 09:24:24;;;;;;;16.07;15.53;;;23.90;54.70;;;;;;4992051;28;20839;-72
2023/12/12 09:26:51;;;;;;;16.47;15.97;;;24.00;54.70;;;;;;4991931;28;20855;-72
2023/12/12 09:29:18;;;;;;;17.07;16.50;;;24.00;54.70;;;;;;4992126;28;20883;-72
2023/12/12 09:31:46;;;;;;;14.80;14.37;;;24.00;54.60;;;;;;4992341;28;20489;-71
2023/12/12 09:34:13;;;;;;;15.70;15.10;;;24.00;54.60;;;;;;4991797;28;20455;-72
2023/12/12 09:36:40;;;;;;;16.63;16.03;;;24.00;54.60;;;;;;4992049;28;20490;-72
2023/12/12 09:39:07;;;;;;;16.20;15.60;;;24.00;54.60;;;;;;4991995;28;20474;-72
2023/12/12 09:41:34;;;;;;;15.37;14.93;;;24.00;54.60;;;;;;4991620;28;20464;-72
2023/12/12 09:44:02;;;;;;;15.20;14.70;;;24.00;54.60;;;;;;4991924;28;20471;-72
2023/12/12 09:46:31;;;;;;;15.53;15.13;;;24.10;54.60;;;;;;4991616;28;20463;-71
2023/12/12 09:49:01;;;;;;;16.00;15.40;;;24.00;54.50;;;;;;4991783;28;20525;-71
2023/12/12 09:51:28;;;;;;;15.00;14.50;;;24.00;54.50;;;;;;4991894;28;20451;-71
2023/12/12 09:53:56;;;;;;;15.07;14.57;;;24.10;54.50;;;;;;4991784;28;20482;-72
2023/12/12 09:56:24;;;;;;;15.60;15.00;;;24.10;54.50;;;;;;4991334;28;20494;-72
2023/12/12 09:58:51;;;;;;;16.80;16.30;;;24.10;54.50;;;;;;4991828;28;20451;-72
2023/12/12 10:01:18;;;;;;;15.70;15.30;;;24.10;54.50;;;;;;4991711;28;20913;-72
2023/12/12 10:03:46;;;;;;;15.67;15.27;;;24.10;54.40;;;;;;4991856;28;20483;-72
2023/12/12 10:06:17;;;;;;;15.77;15.33;;;24.10;54.40;;;;;;4992945;28;20549;-72
2023/12/12 10:08:44;;;;;;;17.57;17.03;;;24.10;54.40;;;;;;4988013;28;20493;-71
2023/12/12 10:11:12;;;;;;;15.73;15.33;;;24.10;54.40;;;;;;4995248;28;20493;-71
2023/12/12 10:13:58;;;;;;;17.23;16.63;;;24.00;54.30;;;;;;4995088;28;20997;-73
2023/12/12 10:16:25;;;;;;;16.30;15.80;;;24.10;54.30;;;;;;4995269;28;20861;-72
2023/12/12 10:18:52;;;;;;;15.90;15.40;;;24.10;54.30;;;;;;4995179;28;20434;-72
2023/12/12 10:21:21;;;;;;;16.37;15.83;;;24.10;54.30;;;;;;4995021;28;20493;-71
2023/12/12 10:23:50;;;;;;;16.53;15.97;;;24.10;54.30;;;;;;4995118;28;20962;-71
2023/12/12 10:26:24;;;;;;;16.83;16.33;;;24.10;54.20;;;;;;4994669;28;20493;-71
2023/12/12 10:28:52;;;;;;;16.93;16.43;;;24.10;54.20;;;;;;4995361;28;20537;-71
2023/12/12 10:31:19;;;;;;;16.57;16.07;;;24.10;54.20;;;;;;4994820;28;20479;-72
2023/12/12 10:33:46;;;;;;;15.30;14.83;;;24.10;54.10;;;;;;4994830;28;20439;-72
2023/12/12 10:36:13;;;;;;;16.27;15.77;;;24.10;54.10;;;;;;4994948;28;20521;-73
2023/12/12 10:38:42;;;;;;;15.77;15.27;;;24.10;54.10;;;;;;4994763;28;20470;-72
2023/12/12 10:41:15;;;;;;;17.07;16.47;;;24.10;54.30;;;;;;4994930;28;20517;-71
2023/12/12 10:43:43;;;;;;;15.83;15.43;;;24.20;54.10;;;;;;4994879;28;20471;-72
2023/12/12 10:46:12;;;;;;;15.20;14.80;;;24.20;54.70;;;;;;4994935;28;20467;-71
2023/12/12 10:48:46;;;;;;;15.50;15.10;;;24.20;54.10;;;;;;4994452;28;20522;-73
2023/12/12 10:51:14;;;;;;;16.30;15.70;;;24.20;54.10;;;;;;4994768;28;20525;-71
2023/12/12 10:53:44;;;;;;;16.13;15.63;;;24.20;54.00;;;;;;4986547;28;20797;-72
2023/12/12 10:56:12;;;;;;;17.17;16.57;;;24.20;54.00;;;;;;4994682;28;20463;-72
2023/12/12 10:58:40;;;;;;;16.60;16.10;;;24.20;54.00;;;;;;4994626;28;20877;-72
2023/12/12 11:01:09;;;;;;;16.07;15.60;;;24.20;54.00;;;;;;4994389;28;20451;-72
2023/12/12 11:03:37;;;;;;;15.57;15.13;;;24.20;54.00;;;;;;4994247;28;20482;-72
2023/12/12 11:06:05;;;;;;;15.73;15.27;;;24.20;54.00;;;;;;4994310;28;20477;-72
2023/12/12 11:08:33;;;;;;;15.47;15.07;;;24.20;54.50;;;;;;4994079;28;20514;-71
2023/12/12 11:11:06;;;;;;;15.50;15.00;;;24.20;53.90;;;;;;4993877;28;20470;-72
2023/12/12 11:13:37;;;;;;;16.00;15.50;;;24.20;54.00;;;;;;4993951;28;20475;-71
2023/12/12 11:16:06;;;;;;;16.50;16.00;;;24.20;53.90;;;;;;4994097;28;20478;-71
2023/12/12 11:18:36;;;;;;;16.60;16.10;;;24.20;53.90;;;;;;4993188;28;20939;-71
2023/12/12 11:21:04;;;;;;;16.20;15.80;;;24.20;53.90;;;;;;4993945;28;20478;-71
2023/12/12 11:23:55;;;;;;;16.30;15.80;;;24.20;53.90;;;;;;4993894;28;20478;-71
2023/12/12 11:26:26;;;;;;;16.70;16.10;;;24.20;53.80;;;;;;4993872;28;20545;-72
2023/12/12 11:28:55;;;;;;;16.90;16.40;;;24.20;53.80;;;;;;4993753;28;20547;-71
2023/12/12 11:31:23;;;;;;;14.60;14.20;;;24.20;53.80;;;;;;4993708;28;20443;-71
2023/12/12 11:34:07;;;;;;;15.87;15.37;;;24.30;53.90;;;;;;4994113;28;20969;-71
2023/12/12 11:36:51;;;;;;;15.63;15.17;;;24.20;53.80;;;;;;4993741;28;20502;-72
2023/12/12 11:39:26;;;;;;;15.83;15.43;;;24.20;53.70;;;;;;4993827;28;20443;-71
2023/12/12 11:41:56;;;;;;;15.47;15.07;;;24.30;53.80;;;;;;4987026;28;20474;-71
2023/12/12 11:44:23;;;;;;;15.87;15.40;;;24.30;53.80;;;;;;4993700;28;20475;-71
2023/12/12 11:46:53;;;;;;;15.70;15.30;;;24.30;53.80;;;;;;4993402;28;20507;-71
2023/12/12 11:49:21;;;;;;;15.90;15.50;;;24.30;53.80;;;;;;4993185;28;20485;-71
2023/12/12 11:51:49;;;;;;;16.17;15.70;;;24.30;53.80;;;;;;4993360;28;20490;-71
2023/12/12 11:54:21;;;;;;;14.93;14.53;;;24.30;53.80;;;;;;4993743;28;20455;-71
2023/12/12 11:56:49;;;;;;;16.13;15.57;;;24.30;53.80;;;;;;4985765;28;20835;-70
2023/12/12 11:59:23;;;;;;;15.67;15.27;;;24.30;53.70;;;;;;4993294;28;20493;-71
2023/12/12 12:01:51;;;;;;;16.53;16.03;;;24.30;53.70;;;;;;4986197;28;20482;-71
2023/12/12 12:04:18;;;;;;;15.73;15.33;;;24.30;53.70;;;;;;4993910;28;20475;-71
2023/12/12 12:06:45;;;;;;;16.37;15.93;;;24.30;53.60;;;;;;4985238;28;20828;-71
2023/12/12 12:09:13;;;;;;;14.80;14.40;;;24.30;53.60;;;;;;4993033;28;20514;-71
2023/12/12 12:11:41;;;;;;;17.97;17.47;;;24.30;53.60;;;;;;4992926;28;20482;-71
2023/12/12 12:14:08;;;;;;;15.70;15.30;;;24.30;53.60;;;;;;4993141;28;20474;-71
2023/12/12 12:16:36;;;;;;;15.20;14.80;;;24.30;53.60;;;;;;4992973;28;20505;-70
2023/12/12 12:19:32;;;;;;;15.87;15.47;;;24.30;53.60;;;;;;4993026;28;20874;-70
2023/12/12 12:22:03;;;;;;;14.70;14.00;;;24.30;53.60;;;;;;4987083;28;20486;-70
2023/12/12 12:24:30;;;;;;;15.60;15.20;;;24.30;53.60;;;;;;4992968;28;20462;-70
2023/12/12 12:26:58;;;;;;;15.40;14.90;;;24.30;53.50;;;;;;4992631;28;20471;-70
2023/12/12 12:29:25;;;;;;;14.93;14.53;;;24.30;53.50;;;;;;4992627;28;20482;-69
2023/12/12 12:31:54;;;;;;;14.50;14.10;;;24.30;53.50;;;;;;4992768;28;20449;-70